createdAt,value
2019-01-14T00:02:10.046Z,0.63
2019-01-14T00:04:40.993Z,0.70
2019-01-14T00:07:11.801Z,0.60
2019-01-14T00:09:42.747Z,0.70
2019-01-14T00:12:13.365Z,0.40
2019-01-14T00:14:44.037Z,0.40
2019-01-14T00:17:14.976Z,0.50
2019-01-14T00:19:45.849Z,0.60
2019-01-14T00:22:16.545Z,0.50
2019-01-14T00:24:47.424Z,0.40
2019-01-14T00:27:18.112Z,0.40
2019-01-14T00:29:48.885Z,0.67
2019-01-14T00:32:19.812Z,0.50
2019-01-14T00:34:50.457Z,0.60
2019-01-14T00:37:21.150Z,0.50
2019-01-14T00:39:52.031Z,0.57
2019-01-14T00:42:22.797Z,0.70
2019-01-14T00:44:53.365Z,0.40
2019-01-14T00:47:24.058Z,1.00
2019-01-14T00:49:54.821Z,0.50
2019-01-14T00:52:25.521Z,0.70
2019-01-14T00:54:56.626Z,0.60
2019-01-14T00:57:27.520Z,0.60
2019-01-14T00:59:58.547Z,0.70
2019-01-14T01:02:29.385Z,0.87
2019-01-14T01:05:00.183Z,0.43
2019-01-14T01:07:31.062Z,0.53
2019-01-14T01:10:01.870Z,0.60
2019-01-14T01:12:33.209Z,0.73
2019-01-14T01:15:04.914Z,0.60
2019-01-14T01:17:35.527Z,0.50
2019-01-14T01:20:07.716Z,0.60
2019-01-14T01:22:38.525Z,0.90
2019-01-14T01:25:10.636Z,0.83
2019-01-14T01:27:41.529Z,0.50
2019-01-14T01:30:15.140Z,0.50
2019-01-14T01:32:45.867Z,0.50
2019-01-14T01:35:17.567Z,0.40
2019-01-14T01:37:48.264Z,0.93
2019-01-14T01:40:21.636Z,0.73
2019-01-14T01:42:52.525Z,0.53
2019-01-14T01:45:23.479Z,0.80
2019-01-14T01:47:54.294Z,0.80
2019-01-14T01:50:25.144Z,0.77
2019-01-14T01:52:55.932Z,0.53
2019-01-14T01:55:26.701Z,0.50
2019-01-14T01:57:57.302Z,0.70
2019-01-14T02:00:28.280Z,0.57
2019-01-14T02:02:59.011Z,0.70
2019-01-14T02:05:29.793Z,1.13
2019-01-14T02:08:00.578Z,0.80
2019-01-14T02:10:31.463Z,0.50
2019-01-14T02:13:02.158Z,0.60
2019-01-14T02:15:33.181Z,0.50
2019-01-14T02:18:03.985Z,0.73
2019-01-14T02:20:34.973Z,0.80
2019-01-14T02:23:05.902Z,0.60
2019-01-14T02:25:36.777Z,0.87
2019-01-14T02:28:07.580Z,0.60
2019-01-14T02:30:38.500Z,0.70
2019-01-14T02:33:09.214Z,0.70
2019-01-14T02:35:40.195Z,0.60
2019-01-14T02:38:11.121Z,0.60
2019-01-14T02:40:41.902Z,0.73
2019-01-14T02:43:12.697Z,0.93
2019-01-14T02:45:43.679Z,1.03
2019-01-14T02:48:14.432Z,0.90
2019-01-14T02:50:46.966Z,0.67
2019-01-14T02:53:17.679Z,0.80
2019-01-14T02:55:48.625Z,0.50
2019-01-14T02:58:19.454Z,0.67
2019-01-14T03:00:50.403Z,0.60
2019-01-14T03:03:21.231Z,0.90
2019-01-14T03:05:52.282Z,1.40
2019-01-14T03:08:23.067Z,1.03
2019-01-14T03:10:53.850Z,1.43
2019-01-14T03:13:24.637Z,0.90
2019-01-14T03:15:55.419Z,0.80
2019-01-14T03:18:26.313Z,0.93
2019-01-14T03:20:58.294Z,0.70
2019-01-14T03:23:29.055Z,1.07
2019-01-14T03:25:59.929Z,0.80
2019-01-14T03:28:30.723Z,0.60
2019-01-14T03:31:01.706Z,0.50
2019-01-14T03:33:32.387Z,0.87
2019-01-14T03:36:03.383Z,0.67
2019-01-14T03:38:34.030Z,1.07
2019-01-14T03:41:04.991Z,0.77
2019-01-14T03:43:35.596Z,0.80
2019-01-14T03:46:06.454Z,1.00
2019-01-14T03:48:37.161Z,0.80
2019-01-14T03:51:08.089Z,0.80
2019-01-14T03:53:38.887Z,0.70
2019-01-14T03:56:09.760Z,0.50
2019-01-14T03:58:40.588Z,0.70
2019-01-14T04:01:11.405Z,0.63
2019-01-14T04:03:42.287Z,0.60
2019-01-14T04:06:13.362Z,0.87
2019-01-14T04:08:44.199Z,0.77
2019-01-14T04:11:14.986Z,0.77
2019-01-14T04:13:45.835Z,1.07
2019-01-14T04:16:16.652Z,1.10
2019-01-14T04:18:47.402Z,0.60
2019-01-14T04:21:18.836Z,1.00
2019-01-14T04:23:49.627Z,1.00
2019-01-14T04:26:20.613Z,1.07
2019-01-14T04:28:51.363Z,1.00
2019-01-14T04:31:22.050Z,1.30
2019-01-14T04:33:52.973Z,1.13
2019-01-14T04:36:23.721Z,1.00
2019-01-14T04:38:54.720Z,0.87
2019-01-14T04:41:25.523Z,0.90
2019-01-14T04:43:56.213Z,1.10
2019-01-14T04:46:27.283Z,0.83
2019-01-14T04:48:58.077Z,0.77
2019-01-14T04:51:28.691Z,1.97
2019-01-14T04:53:59.401Z,1.40
2019-01-14T04:56:30.257Z,1.37
2019-01-14T04:59:00.984Z,1.37
2019-01-14T05:01:31.761Z,1.50
2019-01-14T05:04:02.711Z,1.87
2019-01-14T05:06:33.643Z,1.73
2019-01-14T05:09:05.965Z,1.50
2019-01-14T05:11:36.740Z,1.80
2019-01-14T05:14:07.794Z,1.83
2019-01-14T05:16:38.477Z,1.33
2019-01-14T05:19:09.309Z,1.53
2019-01-14T05:21:40.106Z,1.60
2019-01-14T05:24:10.889Z,1.90
2019-01-14T05:26:41.812Z,1.50
2019-01-14T05:29:12.506Z,1.40
2019-01-14T05:31:43.466Z,1.37
2019-01-14T05:34:14.283Z,1.33
2019-01-14T05:36:45.217Z,1.33
2019-01-14T05:39:16.185Z,1.50
2019-01-14T05:41:47.004Z,1.90
2019-01-14T05:44:17.886Z,1.47
2019-01-14T05:46:48.775Z,2.23
2019-01-14T05:49:20.589Z,1.40
2019-01-14T05:51:51.366Z,2.00
2019-01-14T05:54:22.196Z,1.20
2019-01-14T05:56:53.082Z,1.63
2019-01-14T05:59:23.861Z,1.87
2019-01-14T06:01:54.663Z,2.27
2019-01-14T06:04:25.503Z,1.63
2019-01-14T06:06:56.282Z,2.00
2019-01-14T06:09:26.987Z,2.30
2019-01-14T06:12:01.687Z,2.30
2019-01-14T06:14:33.893Z,1.63
2019-01-14T06:17:04.745Z,2.43
2019-01-14T06:19:36.681Z,2.60
2019-01-14T06:22:07.641Z,2.50
2019-01-14T06:24:38.441Z,2.60
2019-01-14T06:27:10.167Z,2.40
2019-01-14T06:29:41.032Z,2.67
2019-01-14T06:32:11.926Z,2.47
2019-01-14T06:34:42.755Z,1.70
2019-01-14T06:37:13.778Z,2.17
2019-01-14T06:39:44.713Z,1.70
2019-01-14T06:42:15.746Z,2.00
2019-01-14T06:44:46.361Z,1.40
2019-01-14T06:47:17.132Z,2.93
2019-01-14T06:49:47.957Z,2.30
2019-01-14T06:52:18.836Z,2.10
2019-01-14T06:54:49.742Z,2.63
2019-01-14T06:57:20.621Z,2.27
2019-01-14T06:59:51.371Z,2.03
2019-01-14T07:02:22.156Z,2.40
2019-01-14T07:04:53.042Z,2.60
2019-01-14T07:07:23.880Z,2.27
2019-01-14T07:09:54.754Z,1.90
2019-01-14T07:12:25.829Z,1.50
2019-01-14T07:14:56.747Z,2.07
2019-01-14T07:17:27.557Z,1.40
2019-01-14T07:19:58.380Z,1.97
2019-01-14T07:22:29.299Z,1.20
2019-01-14T07:25:00.205Z,2.10
2019-01-14T07:27:31.062Z,2.07
2019-01-14T07:30:01.862Z,2.47
2019-01-14T07:32:32.534Z,1.90
2019-01-14T07:35:03.467Z,2.30
2019-01-14T07:37:34.532Z,1.60
2019-01-14T07:40:07.834Z,2.40
2019-01-14T07:42:38.920Z,2.23
2019-01-14T07:45:11.029Z,1.60
2019-01-14T07:47:41.925Z,1.73
2019-01-14T07:50:14.245Z,1.67
2019-01-14T07:52:45.650Z,2.07
2019-01-14T07:55:16.532Z,1.80
2019-01-14T07:57:47.502Z,2.43
2019-01-14T08:00:23.231Z,2.33
2019-01-14T08:02:54.306Z,2.70
2019-01-14T08:05:25.128Z,4.60
2019-01-14T08:07:55.858Z,5.10
2019-01-14T08:10:26.571Z,6.83
2019-01-14T08:12:57.614Z,7.90
2019-01-14T08:15:28.375Z,8.47
2019-01-14T08:17:59.257Z,6.63
2019-01-14T08:20:30.046Z,5.00
2019-01-14T08:23:00.931Z,3.97
2019-01-14T08:25:31.821Z,4.27
2019-01-14T08:28:02.770Z,4.40
2019-01-14T08:30:33.656Z,3.00
2019-01-14T08:33:05.166Z,2.73
2019-01-14T08:35:35.850Z,2.70
2019-01-14T08:38:06.634Z,2.30
2019-01-14T08:40:37.554Z,2.10
2019-01-14T08:43:08.527Z,2.00
2019-01-14T08:45:39.332Z,2.40
2019-01-14T08:48:10.201Z,1.77
2019-01-14T08:50:41.195Z,2.07
2019-01-14T08:53:11.866Z,2.20
2019-01-14T08:55:42.544Z,2.57
2019-01-14T08:58:13.316Z,2.20
2019-01-14T09:00:44.106Z,2.73
2019-01-14T09:03:14.903Z,2.80
2019-01-14T09:05:45.813Z,2.60
2019-01-14T09:08:16.504Z,3.00
2019-01-14T09:10:47.445Z,3.20
2019-01-14T09:13:18.341Z,2.30
2019-01-14T09:15:50.082Z,2.30
2019-01-14T09:18:21.038Z,1.87
2019-01-14T09:20:51.977Z,2.30
2019-01-14T09:23:23.114Z,1.43
2019-01-14T09:25:54.239Z,2.40
2019-01-14T09:28:25.194Z,2.33
2019-01-14T09:30:55.983Z,2.97
2019-01-14T09:33:26.774Z,2.30
2019-01-14T09:35:57.490Z,2.20
2019-01-14T09:38:28.402Z,1.67
2019-01-14T09:40:59.257Z,2.50
2019-01-14T09:43:30.224Z,2.37
2019-01-14T09:46:01.002Z,1.80
2019-01-14T09:48:31.900Z,1.53
2019-01-14T09:51:02.713Z,1.77
2019-01-14T09:53:33.609Z,2.90
2019-01-14T09:56:04.997Z,1.43
2019-01-14T09:58:35.741Z,2.10
2019-01-14T10:01:06.669Z,1.50
2019-01-14T10:03:37.634Z,1.57
2019-01-14T10:06:08.627Z,2.00
2019-01-14T10:08:43.174Z,2.63
2019-01-14T10:11:12.167Z,2.00
2019-01-14T10:13:43.099Z,1.90
2019-01-14T10:16:13.843Z,1.20
2019-01-14T10:18:45.199Z,1.70
2019-01-14T10:21:16.011Z,1.50
2019-01-14T10:23:46.773Z,1.40
2019-01-14T10:26:17.678Z,1.50
2019-01-14T10:28:48.550Z,1.30
2019-01-14T10:31:20.058Z,1.60
2019-01-14T10:33:50.981Z,1.70
2019-01-14T10:36:21.723Z,1.93
2019-01-14T10:38:52.511Z,0.90
2019-01-14T10:41:23.189Z,1.60
2019-01-14T10:43:54.078Z,1.57
2019-01-14T10:46:24.795Z,2.20
2019-01-14T10:48:55.762Z,1.70
2019-01-14T10:51:26.710Z,1.70
2019-01-14T10:53:57.522Z,2.23
2019-01-14T10:56:28.583Z,1.77
2019-01-14T10:59:00.010Z,2.07
2019-01-14T11:01:30.734Z,2.33
2019-01-14T11:04:01.530Z,1.77
2019-01-14T11:06:32.269Z,2.20
2019-01-14T11:09:06.034Z,2.37
2019-01-14T11:11:37.126Z,2.17
2019-01-14T11:14:08.138Z,2.00
2019-01-14T11:16:38.924Z,1.73
2019-01-14T11:19:09.922Z,2.17
2019-01-14T11:21:41.727Z,2.00
2019-01-14T11:24:12.718Z,1.70
2019-01-14T11:26:43.474Z,1.37
2019-01-14T11:29:14.358Z,1.57
2019-01-14T11:31:45.137Z,1.93
2019-01-14T11:34:16.210Z,1.47
2019-01-14T11:36:46.957Z,1.83
2019-01-14T11:39:21.898Z,1.73
2019-01-14T11:41:53.134Z,1.47
2019-01-14T11:44:23.977Z,1.97
2019-01-14T11:46:54.753Z,1.83
2019-01-14T11:49:25.448Z,1.60
2019-01-14T11:51:56.332Z,1.70
2019-01-14T11:54:28.416Z,1.57
2019-01-14T11:56:59.230Z,1.50
2019-01-14T11:59:30.175Z,1.27
2019-01-14T12:02:00.947Z,1.53
2019-01-14T12:04:32.201Z,2.17
2019-01-14T12:07:02.989Z,1.90
2019-01-14T12:09:34.109Z,1.80
2019-01-14T12:12:04.907Z,1.50
2019-01-14T12:14:35.681Z,1.27
2019-01-14T12:17:06.489Z,1.50
2019-01-14T12:19:37.456Z,1.00
2019-01-14T12:22:08.235Z,1.27
2019-01-14T12:24:39.013Z,1.20
2019-01-14T12:27:09.687Z,1.40
2019-01-14T12:29:40.560Z,1.73
2019-01-14T12:32:11.257Z,1.40
2019-01-14T12:34:41.933Z,1.43
2019-01-14T12:37:12.814Z,1.00
2019-01-14T12:39:43.629Z,1.20
2019-01-14T12:42:14.445Z,0.90
2019-01-14T12:44:45.278Z,1.20
2019-01-14T12:47:16.061Z,1.00
2019-01-14T12:49:46.846Z,1.30
2019-01-14T12:52:17.667Z,0.90
2019-01-14T12:54:48.549Z,0.97
2019-01-14T12:57:19.341Z,1.30
2019-01-14T12:59:51.023Z,1.77
2019-01-14T13:02:21.898Z,0.80
2019-01-14T13:04:52.905Z,1.80
2019-01-14T13:07:23.814Z,1.20
2019-01-14T13:09:55.609Z,1.23
2019-01-14T13:12:26.410Z,0.87
2019-01-14T13:14:57.202Z,0.77
2019-01-14T13:17:27.979Z,1.00
2019-01-14T13:19:58.988Z,1.13
2019-01-14T13:22:29.718Z,1.27
2019-01-14T13:25:00.519Z,0.97
2019-01-14T13:27:31.388Z,1.67
2019-01-14T13:30:02.218Z,1.43
2019-01-14T13:32:33.297Z,1.00
2019-01-14T13:35:04.562Z,1.07
2019-01-14T13:37:35.337Z,1.30
2019-01-14T13:40:07.722Z,1.30
2019-01-14T13:42:38.592Z,1.40
2019-01-14T13:45:11.578Z,1.40
2019-01-14T13:47:42.273Z,1.27
2019-01-14T13:50:15.180Z,1.43
2019-01-14T13:52:46.174Z,1.23
2019-01-14T13:55:17.406Z,1.73
2019-01-14T13:57:48.298Z,1.27
2019-01-14T14:00:21.509Z,1.50
2019-01-14T14:02:52.414Z,1.50
2019-01-14T14:05:23.418Z,1.90
2019-01-14T14:07:54.389Z,2.60
2019-01-14T14:10:32.889Z,2.40
2019-01-14T14:13:03.574Z,1.70
2019-01-14T14:15:34.425Z,2.43
2019-01-14T14:18:05.425Z,1.70
2019-01-14T14:20:36.604Z,1.90
2019-01-14T14:23:07.430Z,1.23
2019-01-14T14:25:38.316Z,2.20
2019-01-14T14:28:09.166Z,2.20
2019-01-14T14:30:41.021Z,1.63
2019-01-14T14:33:11.764Z,1.63
2019-01-14T14:35:42.562Z,2.70
2019-01-14T14:38:13.443Z,2.40
2019-01-14T14:40:44.363Z,1.83
2019-01-14T14:43:15.340Z,1.37
2019-01-14T14:45:46.133Z,1.27
2019-01-14T14:48:16.990Z,1.30
2019-01-14T14:50:47.782Z,1.83
2019-01-14T14:53:18.662Z,1.27
2019-01-14T14:55:49.746Z,1.13
2019-01-14T14:58:20.578Z,1.53
2019-01-14T15:00:51.547Z,1.60
2019-01-14T15:03:22.313Z,1.30
2019-01-14T15:05:53.097Z,1.10
2019-01-14T15:08:23.886Z,1.70
2019-01-14T15:10:54.673Z,1.90
2019-01-14T15:13:25.453Z,1.30
2019-01-14T15:15:56.242Z,2.90
2019-01-14T15:18:27.953Z,2.60
2019-01-14T15:20:58.734Z,2.50
2019-01-14T15:23:29.513Z,2.73
2019-01-14T15:26:00.237Z,2.40
2019-01-14T15:28:31.023Z,3.07
2019-01-14T15:31:02.710Z,2.53
2019-01-14T15:33:33.572Z,3.83
2019-01-14T15:36:05.010Z,3.30
2019-01-14T15:38:35.872Z,2.53
2019-01-14T15:41:06.815Z,3.20
2019-01-14T15:43:37.466Z,2.37
2019-01-14T15:46:08.471Z,2.60
2019-01-14T15:48:39.349Z,2.93
2019-01-14T15:51:10.197Z,2.90
2019-01-14T15:53:40.674Z,3.03
2019-01-14T15:56:11.250Z,4.20
2019-01-14T15:58:41.730Z,2.80
2019-01-14T16:01:12.517Z,2.00
2019-01-14T16:03:42.989Z,2.23
2019-01-14T16:06:13.510Z,3.73
2019-01-14T16:08:43.990Z,1.73
2019-01-14T16:11:14.631Z,1.33
2019-01-14T16:13:45.535Z,1.70
2019-01-14T16:16:16.233Z,2.23
2019-01-14T16:18:46.798Z,2.20
2019-01-14T16:21:17.337Z,3.00
2019-01-14T16:23:47.822Z,3.33
2019-01-14T16:26:18.543Z,2.80
2019-01-14T16:28:49.205Z,3.00
2019-01-14T16:31:20.321Z,3.27
2019-01-14T16:33:52.149Z,3.50
2019-01-14T16:36:23.100Z,3.47
2019-01-14T16:38:53.897Z,3.00
2019-01-14T16:41:24.974Z,3.07
2019-01-14T16:43:55.901Z,2.77
2019-01-14T16:46:26.807Z,3.07
2019-01-14T16:48:57.577Z,3.63
2019-01-14T16:51:28.526Z,3.17
2019-01-14T16:53:59.460Z,3.10
2019-01-14T16:56:30.225Z,3.60
2019-01-14T16:59:01.029Z,5.00
2019-01-14T17:01:32.306Z,5.40
2019-01-14T17:04:03.106Z,2.90
2019-01-14T17:06:34.061Z,2.93
2019-01-14T17:09:08.435Z,3.27
2019-01-14T17:11:40.551Z,3.63
2019-01-14T17:14:12.593Z,3.90
2019-01-14T17:16:43.774Z,3.90
2019-01-14T17:19:14.468Z,2.90
2019-01-14T17:21:45.524Z,3.40
2019-01-14T17:24:16.411Z,4.93
2019-01-14T17:26:47.301Z,4.60
2019-01-14T17:29:18.223Z,4.70
2019-01-14T17:31:49.302Z,4.77
2019-01-14T17:34:20.069Z,4.93
2019-01-14T17:36:50.749Z,4.30
2019-01-14T17:39:21.540Z,6.70
2019-01-14T17:41:52.517Z,6.27
2019-01-14T17:44:22.995Z,4.60
2019-01-14T17:46:53.579Z,5.43
2019-01-14T17:49:24.059Z,9.00
2019-01-14T17:51:54.579Z,4.67
2019-01-14T17:54:25.123Z,8.47
2019-01-14T17:56:55.693Z,6.43
2019-01-14T17:59:26.163Z,5.20
2019-01-14T18:01:56.750Z,4.90
2019-01-14T18:04:27.237Z,4.70
2019-01-14T18:06:57.797Z,5.70
2019-01-14T18:09:28.287Z,4.00
2019-01-14T18:11:58.896Z,2.27
2019-01-14T18:14:29.375Z,5.30
2019-01-14T18:17:00.061Z,5.90
2019-01-14T18:19:30.537Z,4.20
2019-01-14T18:22:01.332Z,3.83
2019-01-14T18:24:32.118Z,2.83
2019-01-14T18:27:02.965Z,3.17
2019-01-14T18:29:33.442Z,3.30
2019-01-14T18:32:04.206Z,2.47
2019-01-14T18:34:34.687Z,2.27
2019-01-14T18:37:05.386Z,2.97
2019-01-14T18:39:35.905Z,2.30
2019-01-14T18:42:06.452Z,2.20
2019-01-14T18:44:36.925Z,2.07
2019-01-14T18:47:07.503Z,2.47
2019-01-14T18:49:37.976Z,1.70
2019-01-14T18:52:08.561Z,1.40
2019-01-14T18:54:39.075Z,2.03
2019-01-14T18:57:09.721Z,1.53
2019-01-14T18:59:40.516Z,2.30
2019-01-14T19:02:11.117Z,4.10
2019-01-14T19:04:41.579Z,3.53
2019-01-14T19:07:12.119Z,2.47
2019-01-14T19:09:42.599Z,3.10
2019-01-14T19:12:13.121Z,4.97
2019-01-14T19:14:43.591Z,4.33
2019-01-14T19:17:14.152Z,4.63
2019-01-14T19:19:44.887Z,3.83
2019-01-14T19:22:16.253Z,4.77
2019-01-14T19:24:47.141Z,3.50
2019-01-14T19:27:18.049Z,3.77
2019-01-14T19:29:48.523Z,3.60
2019-01-14T19:32:20.231Z,3.70
2019-01-14T19:34:50.801Z,3.90
2019-01-14T19:37:23.238Z,4.40
2019-01-14T19:39:53.903Z,5.07
2019-01-14T19:42:24.466Z,4.00
2019-01-14T19:44:54.932Z,4.27
2019-01-14T19:47:25.830Z,4.50
2019-01-14T19:49:57.383Z,4.23
2019-01-14T19:52:27.994Z,4.63
2019-01-14T19:54:58.464Z,3.70
2019-01-14T19:57:29.706Z,4.00
2019-01-14T20:00:00.478Z,3.37
2019-01-14T20:02:31.334Z,2.90
2019-01-14T20:05:03.224Z,3.50
2019-01-14T20:07:34.242Z,2.53
2019-01-14T20:10:06.381Z,2.50
2019-01-14T20:12:37.209Z,2.77
2019-01-14T20:15:09.605Z,3.17
2019-01-14T20:17:40.286Z,3.30
2019-01-14T20:20:11.569Z,3.10
2019-01-14T20:22:42.497Z,2.50
2019-01-14T20:25:13.553Z,2.17
2019-01-14T20:27:44.492Z,2.27
2019-01-14T20:30:23.261Z,1.63
2019-01-14T20:32:54.299Z,1.97
2019-01-14T20:35:25.228Z,1.53
2019-01-14T20:37:56.230Z,1.90
2019-01-14T20:40:27.069Z,1.47
2019-01-14T20:42:58.026Z,1.53
2019-01-14T20:45:28.841Z,2.10
2019-01-14T20:47:59.770Z,1.60
2019-01-14T20:50:30.652Z,1.97
2019-01-14T20:53:01.505Z,2.23
2019-01-14T20:55:32.390Z,2.30
2019-01-14T20:58:03.277Z,2.67
2019-01-14T21:00:34.207Z,1.50
2019-01-14T21:03:05.082Z,2.27
2019-01-14T21:05:35.981Z,1.80
2019-01-14T21:08:09.213Z,2.27
2019-01-14T21:10:40.010Z,2.17
2019-01-14T21:13:11.067Z,2.00
2019-01-14T21:15:41.971Z,1.73
2019-01-14T21:18:12.862Z,1.70
2019-01-14T21:20:44.193Z,1.87
2019-01-14T21:23:15.135Z,2.00
2019-01-14T21:25:46.025Z,2.40
2019-01-14T21:28:17.000Z,2.10
2019-01-14T21:30:47.936Z,2.00
2019-01-14T21:33:19.003Z,2.20
2019-01-14T21:35:49.886Z,2.93
2019-01-14T21:38:20.762Z,2.77
2019-01-14T21:40:51.582Z,2.90
2019-01-14T21:43:22.537Z,2.20
2019-01-14T21:45:53.256Z,2.73
2019-01-14T21:48:24.251Z,2.50
2019-01-14T21:50:55.388Z,2.60
2019-01-14T21:53:26.297Z,3.10
2019-01-14T21:55:57.215Z,4.23
2019-01-14T21:58:28.156Z,3.60
2019-01-14T22:00:59.017Z,2.60
2019-01-14T22:03:29.810Z,3.23
2019-01-14T22:06:00.841Z,3.47
2019-01-14T22:08:31.697Z,3.27
2019-01-14T22:11:02.692Z,2.50
2019-01-14T22:13:33.612Z,2.30
2019-01-14T22:16:04.449Z,2.20
2019-01-14T22:18:35.237Z,2.47
2019-01-14T22:21:06.117Z,2.80
2019-01-14T22:23:36.931Z,2.87
2019-01-14T22:26:07.910Z,2.80
2019-01-14T22:28:38.685Z,2.53
2019-01-14T22:31:09.773Z,2.50
2019-01-14T22:33:40.573Z,2.37
2019-01-14T22:36:11.957Z,2.80
2019-01-14T22:38:42.838Z,2.70
2019-01-14T22:41:13.402Z,2.70
2019-01-14T22:43:43.901Z,2.50
2019-01-14T22:46:14.458Z,2.17
2019-01-14T22:48:44.974Z,2.43
2019-01-14T22:51:15.514Z,2.47
2019-01-14T22:53:46.138Z,3.03
2019-01-14T22:56:17.087Z,2.83
2019-01-14T22:58:47.886Z,2.93
2019-01-14T23:01:30.975Z,2.47
2019-01-14T23:04:01.829Z,2.10
2019-01-14T23:06:32.515Z,2.00
2019-01-14T23:09:04.282Z,2.80
2019-01-14T23:11:35.826Z,2.70
2019-01-14T23:14:06.967Z,2.33
2019-01-14T23:16:37.503Z,2.13
2019-01-14T23:19:08.010Z,2.40
2019-01-14T23:21:38.554Z,2.60
2019-01-14T23:24:09.028Z,2.10
2019-01-14T23:26:39.574Z,1.97
2019-01-14T23:29:10.038Z,2.67
2019-01-14T23:31:41.387Z,2.73
2019-01-14T23:34:11.860Z,2.53
2019-01-14T23:36:42.443Z,2.30
2019-01-14T23:39:12.909Z,2.40
2019-01-14T23:41:43.605Z,2.57
2019-01-14T23:44:14.077Z,1.70
2019-01-14T23:46:44.599Z,2.63
2019-01-14T23:49:15.360Z,2.47
2019-01-14T23:51:46.381Z,2.77
2019-01-14T23:54:17.234Z,2.30
2019-01-14T23:56:48.097Z,2.10
2019-01-14T23:59:18.833Z,2.33
